BRN weather

Bern Belp Airport
Bern, Canton of Berne, Switzerland

Public forecast

Using degrees Celsius for public forecast. Weather courtesy of forecast.io.

METAR (pilot weather report)

Retrieved 2019/05/24 00:20 UTC (0 seconds ago):

LSZB 240020Z AUTO VRB02KT 9999 NSC 08/08 Q1016

TAF (pilot weather forecast)

Forecast is more than 6 hours old.

Closest forecast is Payerne Air Base, 24.3 nm (44.9 km) W. Retrieved 2019/05/23 17:00 UTC (7 hours ago):

TAF LSMP 231625Z 2317/2423 VRB03KT CAVOK